sensor_id;sensor_type;location;lat;lon;timestamp;temperature;humidity
30336;DHT22;17142;47.990;7.846;2023-12-04T05:39:01;-2.40;99.90
30336;DHT22;17142;47.990;7.846;2023-12-04T05:41:28;-2.40;99.90
30336;DHT22;17142;47.990;7.846;2023-12-04T05:43:54;-2.30;99.90
30336;DHT22;17142;47.990;7.846;2023-12-04T05:46:21;-2.30;99.90
30336;DHT22;17142;47.990;7.846;2023-12-04T05:48:48;-2.10;99.90
30336;DHT22;17142;47.990;7.846;2023-12-04T05:51:13;-2.00;99.90
30336;DHT22;17142;47.990;7.846;2023-12-04T05:53:41;-2.00;99.90
30336;DHT22;17142;47.990;7.846;2023-12-04T05:56:10;-1.80;99.90
30336;DHT22;17142;47.990;7.846;2023-12-04T05:58:35;-1.90;99.90
30336;DHT22;17142;47.990;7.846;2023-12-04T06:01:01;-1.90;99.90
30336;DHT22;17142;47.990;7.846;2023-12-04T06:03:28;-2.00;99.90
30336;DHT22;17142;47.990;7.846;2023-12-04T06:05:53;-2.10;99.90
30336;DHT22;17142;47.990;7.846;2023-12-04T06:08:19;-2.20;99.90
30336;DHT22;17142;47.990;7.846;2023-12-04T06:10:46;-2.20;99.90
30336;DHT22;17142;47.990;7.846;2023-12-04T06:13:11;-2.20;99.90
30336;DHT22;17142;47.990;7.846;2023-12-04T06:15:37;-2.30;99.90
30336;DHT22;17142;47.990;7.846;2023-12-04T06:18:05;-2.30;99.90
30336;DHT22;17142;47.990;7.846;2023-12-04T06:20:31;-2.30;99.90
30336;DHT22;17142;47.990;7.846;2023-12-04T06:22:56;-2.30;99.90
30336;DHT22;17142;47.990;7.846;2023-12-04T06:25:25;-2.30;99.90
30336;DHT22;17142;47.990;7.846;2023-12-04T06:27:51;-2.20;99.90
30336;DHT22;17142;47.990;7.846;2023-12-04T06:30:17;-2.30;99.90
30336;DHT22;17142;47.990;7.846;2023-12-04T06:32:43;-2.30;99.90
30336;DHT22;17142;47.990;7.846;2023-12-04T06:35:12;-2.30;99.90
30336;DHT22;17142;47.990;7.846;2023-12-04T06:37:40;-2.40;99.90
30336;DHT22;17142;47.990;7.846;2023-12-04T06:40:07;-2.30;99.90
30336;DHT22;17142;47.990;7.846;2023-12-04T06:42:37;-2.30;99.90
30336;DHT22;17142;47.990;7.846;2023-12-04T06:45:03;-2.30;99.90
30336;DHT22;17142;47.990;7.846;2023-12-04T06:47:31;-2.30;99.90
30336;DHT22;17142;47.990;7.846;2023-12-04T06:49:57;-2.30;99.90
30336;DHT22;17142;47.990;7.846;2023-12-04T06:52:23;-2.30;99.90
30336;DHT22;17142;47.990;7.846;2023-12-04T06:54:51;-2.20;99.90
30336;DHT22;17142;47.990;7.846;2023-12-04T06:57:16;-2.30;99.90
30336;DHT22;17142;47.990;7.846;2023-12-04T06:59:42;-2.30;99.90
30336;DHT22;17142;47.990;7.846;2023-12-04T07:02:08;-2.30;99.90
30336;DHT22;17142;47.990;7.846;2023-12-04T07:04:36;-2.20;99.90
30336;DHT22;17142;47.990;7.846;2023-12-04T07:07:02;-2.20;99.90
30336;DHT22;17142;47.990;7.846;2023-12-04T07:09:33;-2.10;99.90
30336;DHT22;17142;47.990;7.846;2023-12-04T07:12:00;-2.00;99.90
30336;DHT22;17142;47.990;7.846;2023-12-04T07:14:26;-1.90;99.90
30336;DHT22;17142;47.990;7.846;2023-12-04T07:16:52;-1.90;99.90
30336;DHT22;17142;47.990;7.846;2023-12-04T07:19:17;-1.80;99.90
30336;DHT22;17142;47.990;7.846;2023-12-04T07:21:43;-1.70;99.90
30336;DHT22;17142;47.990;7.846;2023-12-04T07:24:09;-1.70;99.90
30336;DHT22;17142;47.990;7.846;2023-12-04T07:26:36;-1.60;99.90
30336;DHT22;17142;47.990;7.846;2023-12-04T07:29:04;-1.50;99.90
30336;DHT22;17142;47.990;7.846;2023-12-04T07:31:32;-1.30;99.90
30336;DHT22;17142;47.990;7.846;2023-12-04T07:33:58;-1.00;99.90
30336;DHT22;17142;47.990;7.846;2023-12-04T07:36:25;-0.90;99.90
30336;DHT22;17142;47.990;7.846;2023-12-04T07:38:51;-0.80;99.90
30336;DHT22;17142;47.990;7.846;2023-12-04T07:41:19;-0.60;99.90
30336;DHT22;17142;47.990;7.846;2023-12-04T07:43:45;-0.50;99.90
30336;DHT22;17142;47.990;7.846;2023-12-04T07:46:11;-0.40;99.90
30336;DHT22;17142;47.990;7.846;2023-12-04T07:48:37;-0.30;99.90
30336;DHT22;17142;47.990;7.846;2023-12-04T07:51:03;-0.30;99.90
30336;DHT22;17142;47.990;7.846;2023-12-04T07:53:31;-0.10;99.90
30336;DHT22;17142;47.990;7.846;2023-12-04T07:56:00;0.10;99.90
30336;DHT22;17142;47.990;7.846;2023-12-04T07:58:25;0.20;99.90
30336;DHT22;17142;47.990;7.846;2023-12-04T08:00:51;0.30;99.90
30336;DHT22;17142;47.990;7.846;2023-12-04T08:03:17;0.30;99.90
30336;DHT22;17142;47.990;7.846;2023-12-04T08:05:42;0.00;99.90
30336;DHT22;17142;47.990;7.846;2023-12-04T08:08:08;-0.50;99.90
30336;DHT22;17142;47.990;7.846;2023-12-04T08:10:36;-0.60;99.90
30336;DHT22;17142;47.990;7.846;2023-12-04T08:13:01;-0.70;99.90
30336;DHT22;17142;47.990;7.846;2023-12-04T08:15:27;-0.80;99.90
30336;DHT22;17142;47.990;7.846;2023-12-04T08:17:55;-0.80;99.90
30336;DHT22;17142;47.990;7.846;2023-12-04T08:20:25;-0.90;99.90
30336;DHT22;17142;47.990;7.846;2023-12-04T08:22:51;-0.90;99.90
30336;DHT22;17142;47.990;7.846;2023-12-04T08:25:16;-1.00;99.90
30336;DHT22;17142;47.990;7.846;2023-12-04T08:27:44;-1.10;99.90
30336;DHT22;17142;47.990;7.846;2023-12-04T08:30:14;-1.10;99.90
30336;DHT22;17142;47.990;7.846;2023-12-04T08:32:43;-1.10;99.90
30336;DHT22;17142;47.990;7.846;2023-12-04T08:35:11;-1.00;99.90
30336;DHT22;17142;47.990;7.846;2023-12-04T08:37:37;-0.90;99.90
30336;DHT22;17142;47.990;7.846;2023-12-04T08:40:02;-0.70;99.90
30336;DHT22;17142;47.990;7.846;2023-12-04T08:42:29;-0.60;99.90
30336;DHT22;17142;47.990;7.846;2023-12-04T08:44:57;-0.50;99.90
30336;DHT22;17142;47.990;7.846;2023-12-04T08:47:25;-0.40;99.90
30336;DHT22;17142;47.990;7.846;2023-12-04T08:49:50;-0.30;99.90
30336;DHT22;17142;47.990;7.846;2023-12-04T08:52:16;-0.10;99.90
30336;DHT22;17142;47.990;7.846;2023-12-04T08:54:42;0.00;99.90
30336;DHT22;17142;47.990;7.846;2023-12-04T08:57:10;0.20;99.90
30336;DHT22;17142;47.990;7.846;2023-12-04T08:59:36;0.40;99.90
30336;DHT22;17142;47.990;7.846;2023-12-04T09:02:01;0.50;99.90
30336;DHT22;17142;47.990;7.846;2023-12-04T09:04:30;0.60;99.90
30336;DHT22;17142;47.990;7.846;2023-12-04T09:06:57;0.80;99.90
30336;DHT22;17142;47.990;7.846;2023-12-04T09:09:25;1.10;99.90
30336;DHT22;17142;47.990;7.846;2023-12-04T09:11:50;1.40;99.90
30336;DHT22;17142;47.990;7.846;2023-12-04T09:14:16;1.50;99.90
30336;DHT22;17142;47.990;7.846;2023-12-04T09:16:42;1.60;99.90
30336;DHT22;17142;47.990;7.846;2023-12-04T09:19:08;1.80;99.90
30336;DHT22;17142;47.990;7.846;2023-12-04T09:21:35;1.90;99.90
30336;DHT22;17142;47.990;7.846;2023-12-04T09:24:01;2.10;99.90
30336;DHT22;17142;47.990;7.846;2023-12-04T09:26:27;2.10;99.90
30336;DHT22;17142;47.990;7.846;2023-12-04T09:28:52;2.10;99.90
30336;DHT22;17142;47.990;7.846;2023-12-04T09:31:18;2.10;99.90
30336;DHT22;17142;47.990;7.846;2023-12-04T09:33:45;2.00;99.90
30336;DHT22;17142;47.990;7.846;2023-12-04T09:36:10;1.80;99.90
30336;DHT22;17142;47.990;7.846;2023-12-04T09:38:36;1.60;99.90
30336;DHT22;17142;47.990;7.846;2023-12-04T09:41:06;1.60;99.90
30336;DHT22;17142;47.990;7.846;2023-12-04T09:43:34;1.50;99.90
30336;DHT22;17142;47.990;7.846;2023-12-04T09:46:01;1.40;99.90
30336;DHT22;17142;47.990;7.846;2023-12-04T09:48:30;1.20;99.90
30336;DHT22;17142;47.990;7.846;2023-12-04T09:50:57;1.10;99.90
30336;DHT22;17142;47.990;7.846;2023-12-04T09:53:26;1.10;99.90
30336;DHT22;17142;47.990;7.846;2023-12-04T09:55:53;1.10;99.90
30336;DHT22;17142;47.990;7.846;2023-12-04T09:58:26;1.20;99.90
30336;DHT22;17142;47.990;7.846;2023-12-04T10:00:54;1.40;99.90
30336;DHT22;17142;47.990;7.846;2023-12-04T10:03:20;1.60;99.90
30336;DHT22;17142;47.990;7.846;2023-12-04T10:05:48;1.70;99.90
30336;DHT22;17142;47.990;7.846;2023-12-04T10:08:14;1.70;99.90
30336;DHT22;17142;47.990;7.846;2023-12-04T10:10:42;1.70;99.90
30336;DHT22;17142;47.990;7.846;2023-12-04T10:13:07;1.70;99.90
30336;DHT22;17142;47.990;7.846;2023-12-04T10:15:34;1.80;99.90
30336;DHT22;17142;47.990;7.846;2023-12-04T10:18:27;2.00;99.90
30336;DHT22;17142;47.990;7.846;2023-12-04T10:20:54;2.10;99.90
30336;DHT22;17142;47.990;7.846;2023-12-04T10:23:20;2.20;99.90
30336;DHT22;17142;47.990;7.846;2023-12-04T10:25:48;2.30;99.90
30336;DHT22;17142;47.990;7.846;2023-12-04T10:28:17;2.40;99.90
30336;DHT22;17142;47.990;7.846;2023-12-04T10:30:45;2.60;99.90
30336;DHT22;17142;47.990;7.846;2023-12-04T10:33:11;2.90;99.90
30336;DHT22;17142;47.990;7.846;2023-12-04T10:35:37;2.90;99.90
30336;DHT22;17142;47.990;7.846;2023-12-04T10:38:04;3.00;99.90
30336;DHT22;17142;47.990;7.846;2023-12-04T10:40:35;3.00;99.90
30336;DHT22;17142;47.990;7.846;2023-12-04T10:45:39;2.80;99.90
30336;DHT22;17142;47.990;7.846;2023-12-04T10:48:09;2.90;99.90
30336;DHT22;17142;47.990;7.846;2023-12-04T10:50:40;2.90;99.90
30336;DHT22;17142;47.990;7.846;2023-12-04T10:53:07;2.80;99.90
30336;DHT22;17142;47.990;7.846;2023-12-04T10:55:34;2.90;99.90
30336;DHT22;17142;47.990;7.846;2023-12-04T10:58:09;2.90;99.90
30336;DHT22;17142;47.990;7.846;2023-12-04T11:00:45;2.90;99.90
30336;DHT22;17142;47.990;7.846;2023-12-04T11:03:31;2.90;99.90
30336;DHT22;17142;47.990;7.846;2023-12-04T11:06:02;2.80;99.90
30336;DHT22;17142;47.990;7.846;2023-12-04T11:08:33;2.70;99.90
30336;DHT22;17142;47.990;7.846;2023-12-04T11:11:10;2.80;99.90
30336;DHT22;17142;47.990;7.846;2023-12-04T11:13:41;2.40;99.90
30336;DHT22;17142;47.990;7.846;2023-12-04T11:19:36;2.30;99.90
30336;DHT22;17142;47.990;7.846;2023-12-04T11:22:04;2.40;99.90
30336;DHT22;17142;47.990;7.846;2023-12-04T11:24:32;2.50;99.90
30336;DHT22;17142;47.990;7.846;2023-12-04T11:26:58;2.50;99.90
30336;DHT22;17142;47.990;7.846;2023-12-04T11:29:24;2.60;99.90
30336;DHT22;17142;47.990;7.846;2023-12-04T11:31:50;2.70;99.90
30336;DHT22;17142;47.990;7.846;2023-12-04T11:34:18;2.80;99.90
30336;DHT22;17142;47.990;7.846;2023-12-04T11:36:44;2.90;99.90
30336;DHT22;17142;47.990;7.846;2023-12-04T11:39:12;2.90;99.90
30336;DHT22;17142;47.990;7.846;2023-12-04T11:41:40;3.10;99.90
30336;DHT22;17142;47.990;7.846;2023-12-04T11:44:12;3.20;99.90
30336;DHT22;17142;47.990;7.846;2023-12-04T11:46:55;3.20;99.90
30336;DHT22;17142;47.990;7.846;2023-12-04T11:51:51;3.20;99.90
30336;DHT22;17142;47.990;7.846;2023-12-04T11:54:18;3.30;99.90
30336;DHT22;17142;47.990;7.846;2023-12-04T11:59:38;3.50;99.90
30336;DHT22;17142;47.990;7.846;2023-12-04T12:02:07;3.70;99.90
30336;DHT22;17142;47.990;7.846;2023-12-04T12:04:37;3.70;99.90
30336;DHT22;17142;47.990;7.846;2023-12-04T12:07:05;3.70;99.90
30336;DHT22;17142;47.990;7.846;2023-12-04T12:09:36;3.70;99.90
30336;DHT22;17142;47.990;7.846;2023-12-04T12:12:02;3.70;99.90
30336;DHT22;17142;47.990;7.846;2023-12-04T12:14:29;3.70;99.90
30336;DHT22;17142;47.990;7.846;2023-12-04T12:16:55;3.80;99.90
30336;DHT22;17142;47.990;7.846;2023-12-04T12:19:21;3.80;99.90
30336;DHT22;17142;47.990;7.846;2023-12-04T12:21:48;3.90;99.90
30336;DHT22;17142;47.990;7.846;2023-12-04T12:24:14;4.00;99.90
30336;DHT22;17142;47.990;7.846;2023-12-04T12:26:40;4.20;99.90
30336;DHT22;17142;47.990;7.846;2023-12-04T12:29:08;4.20;99.90
30336;DHT22;17142;47.990;7.846;2023-12-04T12:31:34;4.30;99.90
30336;DHT22;17142;47.990;7.846;2023-12-04T12:34:00;4.30;99.90
30336;DHT22;17142;47.990;7.846;2023-12-04T12:36:26;4.20;99.90
30336;DHT22;17142;47.990;7.846;2023-12-04T12:38:53;4.30;99.90
30336;DHT22;17142;47.990;7.846;2023-12-04T12:41:19;4.30;99.90
30336;DHT22;17142;47.990;7.846;2023-12-04T12:43:46;4.10;99.90
30336;DHT22;17142;47.990;7.846;2023-12-04T12:46:12;3.80;99.90
30336;DHT22;17142;47.990;7.846;2023-12-04T12:48:42;3.50;99.90
30336;DHT22;17142;47.990;7.846;2023-12-04T12:51:08;3.40;99.90
30336;DHT22;17142;47.990;7.846;2023-12-04T12:53:36;3.40;99.90
30336;DHT22;17142;47.990;7.846;2023-12-04T12:56:03;3.30;99.90
30336;DHT22;17142;47.990;7.846;2023-12-04T12:58:29;3.20;99.90
30336;DHT22;17142;47.990;7.846;2023-12-04T13:00:55;3.00;99.90
30336;DHT22;17142;47.990;7.846;2023-12-04T13:03:21;2.90;99.90
30336;DHT22;17142;47.990;7.846;2023-12-04T13:05:47;2.80;99.90
30336;DHT22;17142;47.990;7.846;2023-12-04T13:08:13;2.80;99.90
30336;DHT22;17142;47.990;7.846;2023-12-04T13:10:40;2.90;99.90
30336;DHT22;17142;47.990;7.846;2023-12-04T13:13:13;3.00;99.90
30336;DHT22;17142;47.990;7.846;2023-12-04T13:15:42;2.90;99.90
30336;DHT22;17142;47.990;7.846;2023-12-04T13:18:08;2.90;99.90
30336;DHT22;17142;47.990;7.846;2023-12-04T13:20:34;2.80;99.90
30336;DHT22;17142;47.990;7.846;2023-12-04T13:23:03;2.90;99.90
30336;DHT22;17142;47.990;7.846;2023-12-04T13:25:31;2.90;99.90
30336;DHT22;17142;47.990;7.846;2023-12-04T13:27:57;3.00;99.90
30336;DHT22;17142;47.990;7.846;2023-12-04T13:30:25;3.10;99.90
30336;DHT22;17142;47.990;7.846;2023-12-04T13:32:51;3.20;99.90
30336;DHT22;17142;47.990;7.846;2023-12-04T13:35:18;3.20;99.90
30336;DHT22;17142;47.990;7.846;2023-12-04T13:37:44;3.30;99.90
30336;DHT22;17142;47.990;7.846;2023-12-04T13:40:19;3.40;99.90
30336;DHT22;17142;47.990;7.846;2023-12-04T13:42:52;3.50;99.90
30336;DHT22;17142;47.990;7.846;2023-12-04T13:45:38;3.50;99.90
30336;DHT22;17142;47.990;7.846;2023-12-04T13:48:06;3.60;99.90
30336;DHT22;17142;47.990;7.846;2023-12-04T13:50:32;3.80;99.90
30336;DHT22;17142;47.990;7.846;2023-12-04T13:52:57;3.80;99.90
30336;DHT22;17142;47.990;7.846;2023-12-04T13:55:26;3.80;99.90
30336;DHT22;17142;47.990;7.846;2023-12-04T13:58:10;3.80;99.90
30336;DHT22;17142;47.990;7.846;2023-12-04T14:00:52;4.00;99.90
30336;DHT22;17142;47.990;7.846;2023-12-04T14:03:20;4.00;99.90
30336;DHT22;17142;47.990;7.846;2023-12-04T14:05:45;4.10;99.90
30336;DHT22;17142;47.990;7.846;2023-12-04T14:08:11;4.10;99.90
30336;DHT22;17142;47.990;7.846;2023-12-04T14:10:36;4.20;99.90
30336;DHT22;17142;47.990;7.846;2023-12-04T14:13:03;4.20;99.90
30336;DHT22;17142;47.990;7.846;2023-12-04T14:15:28;4.30;99.90
30336;DHT22;17142;47.990;7.846;2023-12-04T14:17:56;4.30;99.90
30336;DHT22;17142;47.990;7.846;2023-12-04T14:20:24;4.40;99.90
30336;DHT22;17142;47.990;7.846;2023-12-04T14:22:51;4.50;99.90
30336;DHT22;17142;47.990;7.846;2023-12-04T14:25:17;4.50;99.90
30336;DHT22;17142;47.990;7.846;2023-12-04T14:27:45;4.60;99.90
30336;DHT22;17142;47.990;7.846;2023-12-04T14:30:11;4.50;99.90
30336;DHT22;17142;47.990;7.846;2023-12-04T14:32:41;4.30;99.90
30336;DHT22;17142;47.990;7.846;2023-12-04T14:35:07;4.20;99.90
30336;DHT22;17142;47.990;7.846;2023-12-04T14:37:36;4.20;99.90
30336;DHT22;17142;47.990;7.846;2023-12-04T14:40:01;4.10;99.90
30336;DHT22;17142;47.990;7.846;2023-12-04T14:42:29;4.10;99.90
30336;DHT22;17142;47.990;7.846;2023-12-04T14:44:55;4.00;99.90
30336;DHT22;17142;47.990;7.846;2023-12-04T14:47:23;4.00;99.90
30336;DHT22;17142;47.990;7.846;2023-12-04T14:49:51;4.00;99.90
30336;DHT22;17142;47.990;7.846;2023-12-04T14:52:20;4.20;99.90
30336;DHT22;17142;47.990;7.846;2023-12-04T14:54:47;4.20;99.90
30336;DHT22;17142;47.990;7.846;2023-12-04T14:57:15;4.20;99.90
30336;DHT22;17142;47.990;7.846;2023-12-04T14:59:44;4.20;99.90
30336;DHT22;17142;47.990;7.846;2023-12-04T15:02:28;4.30;99.90
30336;DHT22;17142;47.990;7.846;2023-12-04T15:05:03;4.40;99.90
30336;DHT22;17142;47.990;7.846;2023-12-04T15:07:34;4.40;99.90
30336;DHT22;17142;47.990;7.846;2023-12-04T15:10:06;4.40;99.90
30336;DHT22;17142;47.990;7.846;2023-12-04T15:13:12;4.40;99.90
30336;DHT22;17142;47.990;7.846;2023-12-04T15:15:37;4.40;99.90
30336;DHT22;17142;47.990;7.846;2023-12-04T15:18:22;4.40;99.90
30336;DHT22;17142;47.990;7.846;2023-12-04T15:21:06;4.40;99.90
30336;DHT22;17142;47.990;7.846;2023-12-04T15:23:34;4.70;99.90
30336;DHT22;17142;47.990;7.846;2023-12-04T15:26:01;4.70;99.90
30336;DHT22;17142;47.990;7.846;2023-12-04T15:28:27;4.70;99.90
30336;DHT22;17142;47.990;7.846;2023-12-04T15:30:53;4.60;99.90
30336;DHT22;17142;47.990;7.846;2023-12-04T15:33:18;4.60;99.90
30336;DHT22;17142;47.990;7.846;2023-12-04T15:35:46;4.50;99.90
30336;DHT22;17142;47.990;7.846;2023-12-04T15:38:14;4.50;99.90
30336;DHT22;17142;47.990;7.846;2023-12-04T15:40:42;4.50;99.90
30336;DHT22;17142;47.990;7.846;2023-12-04T15:43:10;4.60;99.90
30336;DHT22;17142;47.990;7.846;2023-12-04T15:45:37;4.70;99.90
30336;DHT22;17142;47.990;7.846;2023-12-04T15:48:03;4.60;99.90
30336;DHT22;17142;47.990;7.846;2023-12-04T15:50:32;4.60;99.90
30336;DHT22;17142;47.990;7.846;2023-12-04T15:53:00;4.50;99.90
30336;DHT22;17142;47.990;7.846;2023-12-04T15:55:27;4.50;99.90
30336;DHT22;17142;47.990;7.846;2023-12-04T15:57:55;4.40;99.90
30336;DHT22;17142;47.990;7.846;2023-12-04T16:00:24;4.40;99.90
30336;DHT22;17142;47.990;7.846;2023-12-04T16:02:50;4.50;99.90
30336;DHT22;17142;47.990;7.846;2023-12-04T16:05:18;4.50;99.90
30336;DHT22;17142;47.990;7.846;2023-12-04T16:07:46;4.60;99.90
30336;DHT22;17142;47.990;7.846;2023-12-04T16:10:13;4.60;99.90
30336;DHT22;17142;47.990;7.846;2023-12-04T16:12:41;4.50;99.90
30336;DHT22;17142;47.990;7.846;2023-12-04T16:15:10;4.50;99.90
30336;DHT22;17142;47.990;7.846;2023-12-04T16:17:38;4.50;99.90
30336;DHT22;17142;47.990;7.846;2023-12-04T16:20:05;4.60;99.90
30336;DHT22;17142;47.990;7.846;2023-12-04T16:22:40;4.50;99.90
30336;DHT22;17142;47.990;7.846;2023-12-04T16:25:08;4.50;99.90
30336;DHT22;17142;47.990;7.846;2023-12-04T16:27:45;4.50;99.90
30336;DHT22;17142;47.990;7.846;2023-12-04T16:30:14;4.60;99.90
30336;DHT22;17142;47.990;7.846;2023-12-04T16:32:41;4.50;99.90
30336;DHT22;17142;47.990;7.846;2023-12-04T16:35:07;4.60;99.90
30336;DHT22;17142;47.990;7.846;2023-12-04T16:37:38;4.70;99.90
30336;DHT22;17142;47.990;7.846;2023-12-04T16:40:08;4.60;99.90
30336;DHT22;17142;47.990;7.846;2023-12-04T16:42:34;4.50;99.90
30336;DHT22;17142;47.990;7.846;2023-12-04T16:45:00;4.50;99.90
30336;DHT22;17142;47.990;7.846;2023-12-04T16:47:26;4.50;99.90
30336;DHT22;17142;47.990;7.846;2023-12-04T16:49:51;4.60;99.90
30336;DHT22;17142;47.990;7.846;2023-12-04T16:52:17;4.60;99.90
30336;DHT22;17142;47.990;7.846;2023-12-04T16:54:43;4.50;99.90
30336;DHT22;17142;47.990;7.846;2023-12-04T16:57:08;4.60;99.90
30336;DHT22;17142;47.990;7.846;2023-12-04T16:59:35;4.60;99.90
30336;DHT22;17142;47.990;7.846;2023-12-04T17:02:01;4.70;99.90
30336;DHT22;17142;47.990;7.846;2023-12-04T17:04:26;4.60;99.90
30336;DHT22;17142;47.990;7.846;2023-12-04T17:06:54;4.70;99.90
30336;DHT22;17142;47.990;7.846;2023-12-04T17:09:20;4.90;99.90
30336;DHT22;17142;47.990;7.846;2023-12-04T17:11:45;5.00;99.90
30336;DHT22;17142;47.990;7.846;2023-12-04T17:14:11;5.00;99.90
30336;DHT22;17142;47.990;7.846;2023-12-04T17:16:37;5.00;99.90
30336;DHT22;17142;47.990;7.846;2023-12-04T17:19:02;5.10;99.90
30336;DHT22;17142;47.990;7.846;2023-12-04T17:21:28;5.20;99.90
30336;DHT22;17142;47.990;7.846;2023-12-04T17:23:57;5.10;99.90
30336;DHT22;17142;47.990;7.846;2023-12-04T17:26:25;4.80;99.90
30336;DHT22;17142;47.990;7.846;2023-12-04T17:28:50;4.70;99.90
30336;DHT22;17142;47.990;7.846;2023-12-04T17:31:16;4.50;99.90
30336;DHT22;17142;47.990;7.846;2023-12-04T17:33:42;4.30;99.90
30336;DHT22;17142;47.990;7.846;2023-12-04T17:36:08;4.10;99.90
30336;DHT22;17142;47.990;7.846;2023-12-04T17:38:36;3.90;99.90
30336;DHT22;17142;47.990;7.846;2023-12-04T17:41:02;3.80;99.90
30336;DHT22;17142;47.990;7.846;2023-12-04T17:43:30;3.70;99.90
30336;DHT22;17142;47.990;7.846;2023-12-04T17:45:57;3.60;99.90
30336;DHT22;17142;47.990;7.846;2023-12-04T17:48:26;3.60;99.90
30336;DHT22;17142;47.990;7.846;2023-12-04T17:50:55;3.60;99.90
30336;DHT22;17142;47.990;7.846;2023-12-04T17:53:20;3.70;99.90
30336;DHT22;17142;47.990;7.846;2023-12-04T17:55:46;3.40;99.90
30336;DHT22;17142;47.990;7.846;2023-12-04T17:58:14;3.30;99.90
30336;DHT22;17142;47.990;7.846;2023-12-04T18:00:42;3.40;99.90
30336;DHT22;17142;47.990;7.846;2023-12-04T18:03:07;3.40;99.90
30336;DHT22;17142;47.990;7.846;2023-12-04T18:05:35;3.50;99.90
30336;DHT22;17142;47.990;7.846;2023-12-04T18:08:01;3.50;99.90
30336;DHT22;17142;47.990;7.846;2023-12-04T18:10:30;3.50;99.90
30336;DHT22;17142;47.990;7.846;2023-12-04T18:12:55;3.50;99.90
30336;DHT22;17142;47.990;7.846;2023-12-04T18:15:21;3.30;99.90
30336;DHT22;17142;47.990;7.846;2023-12-04T18:17:46;3.30;99.90
30336;DHT22;17142;47.990;7.846;2023-12-04T18:20:13;3.20;99.90
30336;DHT22;17142;47.990;7.846;2023-12-04T18:22:41;3.20;99.90
30336;DHT22;17142;47.990;7.846;2023-12-04T18:25:07;3.20;99.90
30336;DHT22;17142;47.990;7.846;2023-12-04T18:27:33;3.20;99.90
30336;DHT22;17142;47.990;7.846;2023-12-04T18:30:00;3.20;99.90
30336;DHT22;17142;47.990;7.846;2023-12-04T18:32:25;3.30;99.90
30336;DHT22;17142;47.990;7.846;2023-12-04T18:34:51;3.20;99.90
30336;DHT22;17142;47.990;7.846;2023-12-04T18:37:50;3.10;99.90
30336;DHT22;17142;47.990;7.846;2023-12-04T18:40:12;3.10;99.90
30336;DHT22;17142;47.990;7.846;2023-12-04T18:42:38;3.20;99.90
30336;DHT22;17142;47.990;7.846;2023-12-04T18:45:05;3.10;99.90
30336;DHT22;17142;47.990;7.846;2023-12-04T18:47:34;3.10;99.90
30336;DHT22;17142;47.990;7.846;2023-12-04T18:50:01;3.10;99.90
30336;DHT22;17142;47.990;7.846;2023-12-04T18:52:29;3.10;99.90
30336;DHT22;17142;47.990;7.846;2023-12-04T18:54:56;3.00;99.90
30336;DHT22;17142;47.990;7.846;2023-12-04T18:57:24;3.00;99.90
30336;DHT22;17142;47.990;7.846;2023-12-04T18:59:49;2.90;99.90
30336;DHT22;17142;47.990;7.846;2023-12-04T19:02:15;3.00;99.90
30336;DHT22;17142;47.990;7.846;2023-12-04T19:04:41;3.00;99.90
30336;DHT22;17142;47.990;7.846;2023-12-04T19:07:08;3.00;99.90
30336;DHT22;17142;47.990;7.846;2023-12-04T19:09:36;3.00;99.90
30336;DHT22;17142;47.990;7.846;2023-12-04T19:12:02;3.00;99.90
30336;DHT22;17142;47.990;7.846;2023-12-04T19:14:28;3.00;99.90
30336;DHT22;17142;47.990;7.846;2023-12-04T19:16:59;3.10;99.90
30336;DHT22;17142;47.990;7.846;2023-12-04T19:19:24;3.00;99.90
30336;DHT22;17142;47.990;7.846;2023-12-04T19:21:50;3.00;99.90
30336;DHT22;17142;47.990;7.846;2023-12-04T19:24:15;3.00;99.90
30336;DHT22;17142;47.990;7.846;2023-12-04T19:26:44;3.00;99.90
30336;DHT22;17142;47.990;7.846;2023-12-04T19:29:12;3.00;99.90
30336;DHT22;17142;47.990;7.846;2023-12-04T19:31:37;3.00;99.90
30336;DHT22;17142;47.990;7.846;2023-12-04T19:34:03;3.00;99.90
30336;DHT22;17142;47.990;7.846;2023-12-04T19:36:29;3.00;99.90
30336;DHT22;17142;47.990;7.846;2023-12-04T19:38:57;3.00;99.90
30336;DHT22;17142;47.990;7.846;2023-12-04T19:41:32;3.10;99.90
30336;DHT22;17142;47.990;7.846;2023-12-04T19:43:58;3.10;99.90
30336;DHT22;17142;47.990;7.846;2023-12-04T19:46:23;3.20;99.90
30336;DHT22;17142;47.990;7.846;2023-12-04T19:48:49;3.30;99.90
30336;DHT22;17142;47.990;7.846;2023-12-04T19:51:15;3.50;99.90
30336;DHT22;17142;47.990;7.846;2023-12-04T19:53:40;3.70;99.90
30336;DHT22;17142;47.990;7.846;2023-12-04T19:56:09;3.90;99.90
30336;DHT22;17142;47.990;7.846;2023-12-04T19:58:35;4.10;99.90
30336;DHT22;17142;47.990;7.846;2023-12-04T20:01:01;4.40;99.90
30336;DHT22;17142;47.990;7.846;2023-12-04T20:03:29;4.60;99.90
30336;DHT22;17142;47.990;7.846;2023-12-04T20:05:55;4.90;99.90
30336;DHT22;17142;47.990;7.846;2023-12-04T20:08:23;5.20;99.90
30336;DHT22;17142;47.990;7.846;2023-12-04T20:10:48;5.20;99.90
30336;DHT22;17142;47.990;7.846;2023-12-04T20:13:14;5.20;99.90
30336;DHT22;17142;47.990;7.846;2023-12-04T20:15:42;5.20;99.90
30336;DHT22;17142;47.990;7.846;2023-12-04T20:18:07;5.30;99.90
30336;DHT22;17142;47.990;7.846;2023-12-04T20:20:33;5.30;99.90
30336;DHT22;17142;47.990;7.846;2023-12-04T20:23:01;5.40;99.90
30336;DHT22;17142;47.990;7.846;2023-12-04T20:25:27;5.60;99.90
30336;DHT22;17142;47.990;7.846;2023-12-04T20:27:53;5.60;99.90
30336;DHT22;17142;47.990;7.846;2023-12-04T20:30:21;5.60;99.90
30336;DHT22;17142;47.990;7.846;2023-12-04T20:32:46;5.60;99.90
30336;DHT22;17142;47.990;7.846;2023-12-04T20:35:15;5.80;99.90
30336;DHT22;17142;47.990;7.846;2023-12-04T20:37:43;6.00;99.90
30336;DHT22;17142;47.990;7.846;2023-12-04T20:40:09;6.00;99.90
30336;DHT22;17142;47.990;7.846;2023-12-04T20:42:35;6.10;99.90
30336;DHT22;17142;47.990;7.846;2023-12-04T20:45:04;6.20;99.90
30336;DHT22;17142;47.990;7.846;2023-12-04T20:47:32;6.40;99.90
30336;DHT22;17142;47.990;7.846;2023-12-04T20:50:00;6.60;99.90
30336;DHT22;17142;47.990;7.846;2023-12-04T20:52:26;6.70;99.90
30336;DHT22;17142;47.990;7.846;2023-12-04T20:54:52;6.70;99.90
30336;DHT22;17142;47.990;7.846;2023-12-04T20:57:17;6.70;99.90
30336;DHT22;17142;47.990;7.846;2023-12-04T20:59:45;6.70;99.90
30336;DHT22;17142;47.990;7.846;2023-12-04T21:02:11;6.80;99.90
30336;DHT22;17142;47.990;7.846;2023-12-04T21:04:36;6.90;99.90
30336;DHT22;17142;47.990;7.846;2023-12-04T21:07:02;6.80;99.90
30336;DHT22;17142;47.990;7.846;2023-12-04T21:09:30;6.80;99.90
30336;DHT22;17142;47.990;7.846;2023-12-04T21:11:56;6.90;99.90
30336;DHT22;17142;47.990;7.846;2023-12-04T21:14:22;7.10;99.90
30336;DHT22;17142;47.990;7.846;2023-12-04T21:16:47;7.00;99.90
30336;DHT22;17142;47.990;7.846;2023-12-04T21:19:15;6.90;99.90
30336;DHT22;17142;47.990;7.846;2023-12-04T21:21:43;6.90;99.90
30336;DHT22;17142;47.990;7.846;2023-12-04T21:24:12;6.90;99.90
30336;DHT22;17142;47.990;7.846;2023-12-04T21:26:38;6.90;99.90
30336;DHT22;17142;47.990;7.846;2023-12-04T21:29:04;6.90;99.90
30336;DHT22;17142;47.990;7.846;2023-12-04T21:31:29;6.90;99.90
30336;DHT22;17142;47.990;7.846;2023-12-04T21:33:59;7.00;99.90